createdAt,value
2022-09-15T00:00:43.678Z,13.21
2022-09-15T00:02:45.927Z,13.18
2022-09-15T00:04:47.480Z,13.16
2022-09-15T00:06:48.950Z,13.07
2022-09-15T00:08:50.489Z,13.04
2022-09-15T00:10:54.198Z,13.03
2022-09-15T00:12:57.020Z,13.04
2022-09-15T00:14:58.684Z,13.12
2022-09-15T00:17:00.283Z,13.03
2022-09-15T00:19:02.468Z,13.02
2022-09-15T00:21:06.179Z,13.00
2022-09-15T00:23:08.059Z,12.97
2022-09-15T00:25:10.257Z,13.00
2022-09-15T00:27:11.824Z,13.06
2022-09-15T00:29:14.646Z,13.04
2022-09-15T00:31:18.274Z,13.02
2022-09-15T00:33:21.455Z,12.95
2022-09-15T00:35:22.938Z,12.96
2022-09-15T00:37:24.868Z,12.95
2022-09-15T00:39:26.420Z,12.99
2022-09-15T00:41:27.976Z,12.99
2022-09-15T00:43:46.013Z,13.00
2022-09-15T00:45:48.933Z,12.97
2022-09-15T00:47:51.744Z,12.96
2022-09-15T00:49:59.345Z,12.92
2022-09-15T00:52:05.203Z,12.87
2022-09-15T00:54:10.961Z,12.81
2022-09-15T00:56:14.227Z,12.78
2022-09-15T00:58:20.645Z,12.78
2022-09-15T01:00:24.673Z,12.68
2022-09-15T01:02:29.508Z,12.68
2022-09-15T01:04:31.203Z,12.65
2022-09-15T01:06:37.973Z,12.60
2022-09-15T01:08:42.593Z,12.56
2022-09-15T01:10:45.281Z,12.60
2022-09-15T01:12:47.455Z,12.52
2022-09-15T01:14:48.982Z,12.57
2022-09-15T01:17:01.524Z,12.54
2022-09-15T01:19:29.629Z,12.53
2022-09-15T01:21:41.002Z,12.55
2022-09-15T01:24:12.908Z,12.52
2022-09-15T01:26:50.840Z,12.53
2022-09-15T01:29:30.146Z,12.44
2022-09-15T01:31:39.982Z,12.49
2022-09-15T01:33:48.818Z,12.43
2022-09-15T01:36:00.554Z,12.39
2022-09-15T01:38:08.450Z,12.35
2022-09-15T01:40:12.856Z,12.27
2022-09-15T01:42:16.653Z,12.23
2022-09-15T01:44:23.655Z,12.22
2022-09-15T01:46:29.134Z,12.13
2022-09-15T01:48:35.773Z,12.12
2022-09-15T01:50:42.308Z,12.11
2022-09-15T01:52:47.240Z,12.15
2022-09-15T01:54:52.840Z,12.15
2022-09-15T01:56:54.408Z,12.17
2022-09-15T01:58:55.939Z,12.18
2022-09-15T02:01:01.922Z,12.22
2022-09-15T02:03:14.439Z,12.25
2022-09-15T02:05:22.093Z,12.23
2022-09-15T02:07:28.946Z,12.17
2022-09-15T02:09:32.449Z,12.16
2022-09-15T02:11:36.125Z,12.11
2022-09-15T02:13:44.671Z,12.21
2022-09-15T02:15:49.192Z,12.20
2022-09-15T02:17:52.497Z,12.16
2022-09-15T02:20:02.742Z,12.24
2022-09-15T02:22:09.634Z,12.22
2022-09-15T02:24:16.768Z,12.21
2022-09-15T02:26:21.675Z,12.18
2022-09-15T02:28:29.345Z,12.13
2022-09-15T02:30:32.336Z,12.22
2022-09-15T02:32:36.817Z,12.24
2022-09-15T02:34:44.196Z,12.25
2022-09-15T02:36:46.845Z,12.21
2022-09-15T02:38:54.163Z,12.21
2022-09-15T02:40:56.345Z,12.27
2022-09-15T02:43:00.517Z,12.15
2022-09-15T02:45:02.600Z,12.11
2022-09-15T02:47:04.728Z,12.04
2022-09-15T02:49:06.261Z,12.11
2022-09-15T02:51:08.160Z,12.12
2022-09-15T02:53:09.631Z,12.18
2022-09-15T02:55:12.630Z,12.15
2022-09-15T02:57:14.279Z,12.12
2022-09-15T02:59:15.744Z,12.08
2022-09-15T03:01:17.479Z,12.00
2022-09-15T03:03:19.006Z,12.09
2022-09-15T03:05:22.625Z,12.09
2022-09-15T03:07:24.162Z,12.12
2022-09-15T03:09:25.624Z,12.06
2022-09-15T03:11:29.958Z,12.05
2022-09-15T03:13:31.411Z,12.05
2022-09-15T03:15:33.267Z,12.05
2022-09-15T03:17:35.649Z,12.13
2022-09-15T03:19:37.326Z,11.99
2022-09-15T03:21:38.864Z,11.99
2022-09-15T03:23:40.864Z,11.96
2022-09-15T03:25:45.344Z,11.94
2022-09-15T03:27:48.164Z,11.87
2022-09-15T03:29:49.842Z,11.97
2022-09-15T03:31:51.467Z,11.88
2022-09-15T03:33:53.027Z,11.87
2022-09-15T03:35:54.513Z,11.92
2022-09-15T03:37:55.964Z,11.87
2022-09-15T03:39:57.301Z,11.82
2022-09-15T03:41:58.775Z,11.82
2022-09-15T03:44:01.594Z,11.74
2022-09-15T03:46:04.232Z,11.76
2022-09-15T03:48:06.056Z,11.81
2022-09-15T03:50:07.956Z,11.78
2022-09-15T03:52:09.626Z,11.75
2022-09-15T03:54:11.105Z,11.78
2022-09-15T03:56:18.982Z,11.81
2022-09-15T03:58:20.480Z,11.83
2022-09-15T04:00:23.349Z,11.90
2022-09-15T04:02:24.923Z,11.85
2022-09-15T04:04:26.728Z,11.82
2022-09-15T04:06:28.263Z,11.88
2022-09-15T04:08:29.788Z,11.80
2022-09-15T04:10:31.342Z,11.78
2022-09-15T04:12:32.895Z,11.76
2022-09-15T04:14:34.360Z,11.74
2022-09-15T04:16:37.404Z,11.71
2022-09-15T04:18:39.270Z,11.73
2022-09-15T04:20:41.405Z,11.63
2022-09-15T04:22:45.761Z,11.79
2022-09-15T04:24:47.433Z,11.73
2022-09-15T04:26:48.911Z,11.73
2022-09-15T04:28:50.533Z,11.70
2022-09-15T04:30:52.585Z,11.70
2022-09-15T04:32:55.389Z,11.66
2022-09-15T04:34:56.854Z,11.64
2022-09-15T04:36:58.407Z,11.72
2022-09-15T04:39:00.040Z,11.67
2022-09-15T04:41:02.303Z,11.55
2022-09-15T04:43:03.811Z,11.42
2022-09-15T04:45:06.104Z,11.49
2022-09-15T04:47:07.671Z,11.51
2022-09-15T04:49:10.703Z,11.42
2022-09-15T04:51:14.383Z,11.40
2022-09-15T04:53:16.057Z,11.35
2022-09-15T04:55:17.630Z,11.32
2022-09-15T04:57:19.061Z,11.32
2022-09-15T04:59:20.530Z,11.29
2022-09-15T05:01:25.381Z,11.26
2022-09-15T05:03:26.882Z,11.22
2022-09-15T05:05:29.553Z,11.25
2022-09-15T05:07:30.982Z,11.36
2022-09-15T05:09:32.276Z,11.60
2022-09-15T05:11:33.934Z,11.83
2022-09-15T05:13:36.276Z,11.89
2022-09-15T05:15:37.753Z,12.05
2022-09-15T05:17:39.412Z,12.08
2022-09-15T05:19:40.854Z,12.19
2022-09-15T05:21:43.676Z,12.07
2022-09-15T05:23:45.641Z,12.31
2022-09-15T05:25:54.690Z,12.21
2022-09-15T05:27:56.135Z,12.36
2022-09-15T05:30:23.636Z,12.32
2022-09-15T05:32:19.062Z,12.43
2022-09-15T05:34:20.356Z,12.53
2022-09-15T05:36:23.348Z,12.61
2022-09-15T05:38:29.710Z,12.78
2022-09-15T05:40:32.791Z,12.72
2022-09-15T05:42:34.275Z,12.73
2022-09-15T05:44:35.746Z,12.80
2022-09-15T05:46:37.301Z,12.78
2022-09-15T05:48:38.881Z,12.86
2022-09-15T05:50:49.105Z,12.89
2022-09-15T05:52:51.209Z,12.95
2022-09-15T05:54:58.881Z,13.17
2022-09-15T05:57:00.689Z,13.39
2022-09-15T05:59:02.168Z,13.52
2022-09-15T06:01:05.994Z,13.62
2022-09-15T06:03:08.037Z,13.88
2022-09-15T06:05:09.832Z,13.92
2022-09-15T06:07:11.293Z,13.98
2022-09-15T06:09:12.741Z,13.94
2022-09-15T06:11:17.346Z,13.97
2022-09-15T06:13:18.819Z,13.92
2022-09-15T06:15:20.521Z,13.87
2022-09-15T06:17:22.064Z,13.85
2022-09-15T06:19:23.618Z,13.69
2022-09-15T06:21:26.710Z,13.82
2022-09-15T06:23:28.168Z,13.85
2022-09-15T06:25:29.690Z,13.78
2022-09-15T06:27:32.658Z,13.91
2022-09-15T06:29:34.094Z,14.16
2022-09-15T06:31:35.968Z,14.37
2022-09-15T06:33:37.537Z,14.48
2022-09-15T06:35:39.103Z,14.65
2022-09-15T06:37:40.724Z,14.75
2022-09-15T06:39:42.631Z,14.87
2022-09-15T06:42:01.293Z,14.80
2022-09-15T06:44:05.431Z,14.84
2022-09-15T06:46:08.952Z,14.76
2022-09-15T06:48:23.829Z,14.84
2022-09-15T06:50:26.136Z,14.73
2022-09-15T06:52:27.655Z,14.52
2022-09-15T06:54:29.110Z,14.43
2022-09-15T06:56:34.480Z,14.56
2022-09-15T06:58:40.035Z,14.68
2022-09-15T07:00:43.075Z,14.71
2022-09-15T07:02:44.620Z,14.69
2022-09-15T07:04:46.155Z,14.75
2022-09-15T07:06:48.286Z,14.80
2022-09-15T07:08:50.483Z,14.87
2022-09-15T07:10:51.962Z,14.92
2022-09-15T07:12:53.514Z,14.78
2022-09-15T07:14:55.075Z,14.84
2022-09-15T07:16:58.041Z,14.77
2022-09-15T07:18:59.511Z,14.70
2022-09-15T07:21:02.514Z,14.58
2022-09-15T07:23:03.982Z,14.59
2022-09-15T07:25:06.402Z,14.69
2022-09-15T07:27:07.910Z,14.75
2022-09-15T07:29:09.662Z,14.74
2022-09-15T07:31:14.596Z,14.88
2022-09-15T07:33:17.457Z,14.86
2022-09-15T07:35:18.941Z,15.07
2022-09-15T07:37:21.002Z,15.13
2022-09-15T07:39:22.777Z,15.30
2022-09-15T07:41:26.388Z,15.27
2022-09-15T07:43:27.844Z,15.21
2022-09-15T07:45:29.620Z,15.14
2022-09-15T07:47:31.177Z,15.12
2022-09-15T07:49:34.044Z,14.95
2022-09-15T07:51:35.694Z,15.04
2022-09-15T07:53:37.262Z,15.03
2022-09-15T07:55:38.727Z,14.95
2022-09-15T07:57:40.270Z,14.87
2022-09-15T07:59:41.731Z,15.05
2022-09-15T08:01:43.250Z,15.15
2022-09-15T08:03:46.238Z,15.11
2022-09-15T08:05:49.169Z,15.06
2022-09-15T08:07:50.622Z,15.09
2022-09-15T08:09:52.154Z,15.11
2022-09-15T08:11:53.627Z,15.00
2022-09-15T08:13:55.085Z,15.13
2022-09-15T08:15:56.735Z,15.26
2022-09-15T08:17:58.277Z,15.35
2022-09-15T08:19:59.753Z,15.53
2022-09-15T08:22:02.886Z,15.40
2022-09-15T08:24:04.541Z,15.46
2022-09-15T08:26:10.668Z,15.39
2022-09-15T08:28:14.716Z,15.41
2022-09-15T08:30:16.231Z,15.45
2022-09-15T08:32:17.703Z,15.41
2022-09-15T08:34:19.210Z,15.45
2022-09-15T08:36:21.263Z,15.44
2022-09-15T08:38:24.097Z,15.55
2022-09-15T08:40:30.737Z,15.63
2022-09-15T08:42:33.346Z,15.76
2022-09-15T08:44:40.866Z,15.70
2022-09-15T08:46:50.484Z,15.97
2022-09-15T08:49:03.321Z,15.91
2022-09-15T08:51:10.173Z,15.88
2022-09-15T08:53:15.388Z,15.95
2022-09-15T08:55:26.056Z,16.09
2022-09-15T08:57:27.842Z,15.92
2022-09-15T08:59:34.789Z,16.08
2022-09-15T09:01:53.507Z,16.02
2022-09-15T09:04:12.336Z,16.04
2022-09-15T09:06:27.780Z,15.93
2022-09-15T09:08:50.156Z,15.92
2022-09-15T09:10:56.512Z,15.76
2022-09-15T09:13:11.798Z,15.77
2022-09-15T09:15:26.053Z,15.84
2022-09-15T09:17:44.183Z,15.86
2022-09-15T09:19:59.599Z,16.01
2022-09-15T09:22:05.624Z,16.12
2022-09-15T09:24:15.541Z,16.28
2022-09-15T09:26:19.522Z,16.21
2022-09-15T09:28:29.453Z,16.22
2022-09-15T09:30:34.515Z,16.14
2022-09-15T09:32:41.793Z,16.09
2022-09-15T09:34:47.835Z,16.14
2022-09-15T09:36:54.738Z,16.20
2022-09-15T09:38:56.952Z,16.30
2022-09-15T09:41:02.278Z,16.35
2022-09-15T09:43:05.728Z,16.42
2022-09-15T09:45:11.622Z,16.45
2022-09-15T09:47:13.191Z,16.51
2022-09-15T09:49:19.898Z,16.75
2022-09-15T09:51:32.496Z,16.69
2022-09-15T09:53:34.079Z,16.69
2022-09-15T09:55:35.569Z,16.73
2022-09-15T09:57:40.538Z,16.81
2022-09-15T09:59:45.431Z,16.82
2022-09-15T10:02:05.776Z,16.92
2022-09-15T10:04:18.281Z,17.12
2022-09-15T10:06:21.556Z,17.13
2022-09-15T10:08:23.080Z,17.14
2022-09-15T10:10:26.682Z,17.18
2022-09-15T10:12:33.253Z,17.09
2022-09-15T10:14:38.378Z,17.14
2022-09-15T10:16:41.392Z,17.30
2022-09-15T10:18:43.035Z,17.43
2022-09-15T10:20:49.297Z,17.46
2022-09-15T10:22:50.991Z,17.51
2022-09-15T10:24:52.752Z,17.23
2022-09-15T10:27:06.663Z,17.37
2022-09-15T10:29:12.642Z,17.19
2022-09-15T10:31:28.177Z,17.32
2022-09-15T10:33:32.999Z,17.36
2022-09-15T10:35:34.598Z,17.23
2022-09-15T10:37:43.664Z,17.19
2022-09-15T10:39:52.727Z,17.50
2022-09-15T10:42:02.084Z,17.77
2022-09-15T10:44:20.408Z,17.98
2022-09-15T10:46:27.455Z,18.14
2022-09-15T10:48:44.828Z,18.14
2022-09-15T10:50:55.445Z,17.99
2022-09-15T10:53:16.216Z,18.02
2022-09-15T10:55:48.877Z,18.17
2022-09-15T10:58:06.834Z,18.52
2022-09-15T11:00:11.489Z,18.78
2022-09-15T11:02:32.646Z,19.08
2022-09-15T11:04:46.527Z,18.98
2022-09-15T11:06:50.683Z,19.00
2022-09-15T11:09:09.264Z,18.79
2022-09-15T11:11:20.868Z,18.78
2022-09-15T11:13:29.548Z,18.79
2022-09-15T11:15:49.077Z,18.74
2022-09-15T11:18:08.246Z,18.79
2022-09-15T11:20:31.999Z,18.71
2022-09-15T11:22:37.748Z,18.71
2022-09-15T11:24:44.745Z,18.52
2022-09-15T11:26:52.915Z,18.54
2022-09-15T11:28:59.266Z,18.62
2022-09-15T11:31:05.687Z,18.58
2022-09-15T11:33:17.153Z,18.45
2022-09-15T11:35:33.277Z,18.59
2022-09-15T11:37:41.027Z,18.58
2022-09-15T11:39:50.099Z,18.63
2022-09-15T11:41:56.180Z,18.45
2022-09-15T11:44:07.422Z,18.60
2022-09-15T11:46:15.004Z,18.59
2022-09-15T11:48:19.366Z,18.55
2022-09-15T11:50:24.151Z,18.66
2022-09-15T11:52:54.773Z,18.62
2022-09-15T11:55:00.698Z,18.61
2022-09-15T11:57:02.508Z,18.46
2022-09-15T11:59:14.340Z,18.44
2022-09-15T12:01:21.112Z,18.29
2022-09-15T12:03:30.830Z,18.59
2022-09-15T12:05:37.844Z,18.46
2022-09-15T12:07:45.075Z,18.08
2022-09-15T12:09:47.915Z,17.81
2022-09-15T12:11:53.535Z,17.53
2022-09-15T12:13:55.323Z,17.35
2022-09-15T12:15:57.484Z,17.37
2022-09-15T12:18:27.408Z,17.51
2022-09-15T12:20:36.182Z,17.58
2022-09-15T12:22:44.818Z,17.65
2022-09-15T12:24:58.934Z,17.55
2022-09-15T12:27:03.709Z,17.55
2022-09-15T12:29:29.685Z,17.49
2022-09-15T12:31:35.334Z,17.28
2022-09-15T12:33:53.055Z,17.37
2022-09-15T12:35:54.540Z,17.38
2022-09-15T12:37:57.450Z,17.09
2022-09-15T12:39:59.220Z,17.06
2022-09-15T12:42:14.051Z,17.03
2022-09-15T12:44:29.320Z,16.93
2022-09-15T12:46:31.065Z,17.23
2022-09-15T12:48:35.585Z,17.38
2022-09-15T12:50:39.093Z,17.40
2022-09-15T12:52:47.173Z,17.60
2022-09-15T12:54:54.025Z,17.63
2022-09-15T12:56:57.263Z,17.59
2022-09-15T12:59:06.766Z,17.69
2022-09-15T13:01:32.444Z,17.63
2022-09-15T13:04:07.694Z,17.78
2022-09-15T13:06:18.037Z,17.74
2022-09-15T13:08:52.070Z,17.63
2022-09-15T13:11:02.475Z,17.76
2022-09-15T13:13:22.482Z,18.16
2022-09-15T13:15:25.686Z,18.29
2022-09-15T13:17:27.963Z,18.49
2022-09-15T13:19:37.174Z,18.29
2022-09-15T13:21:43.630Z,18.13
2022-09-15T13:23:47.918Z,18.02
2022-09-15T13:25:52.398Z,18.05
2022-09-15T13:27:56.102Z,18.11
2022-09-15T13:30:09.973Z,18.15
2022-09-15T13:32:16.014Z,18.04
2022-09-15T13:40:11.241Z,17.82
2022-09-15T13:42:45.038Z,18.08
2022-09-15T13:45:28.070Z,18.47
2022-09-15T13:47:46.994Z,18.42
2022-09-15T13:49:52.670Z,18.45
2022-09-15T13:52:00.470Z,18.25
2022-09-15T13:54:06.599Z,18.30
2022-09-15T13:56:16.012Z,18.29
2022-09-15T14:00:58.607Z,18.58
2022-09-15T14:03:09.771Z,18.62
2022-09-15T14:05:12.149Z,18.54
2022-09-15T14:07:21.867Z,18.58
2022-09-15T14:09:27.291Z,18.79
2022-09-15T14:11:31.066Z,18.74
2022-09-15T14:13:34.801Z,18.65
2022-09-15T14:15:36.296Z,18.83
2022-09-15T14:17:44.711Z,18.62
2022-09-15T14:19:48.960Z,18.51
2022-09-15T14:21:53.812Z,18.56
2022-09-15T14:23:59.699Z,18.37
2022-09-15T14:26:02.782Z,18.31
2022-09-15T14:28:05.311Z,17.99
2022-09-15T14:30:16.667Z,18.02
2022-09-15T14:32:18.312Z,17.92
2022-09-15T14:34:22.009Z,17.84
2022-09-15T14:36:26.650Z,17.78
2022-09-15T14:38:28.139Z,17.78
2022-09-15T14:40:32.036Z,17.70
2022-09-15T14:42:40.190Z,17.78
2022-09-15T14:47:11.357Z,17.52
2022-09-15T14:49:14.796Z,17.48
2022-09-15T14:51:21.180Z,17.43
2022-09-15T14:53:25.223Z,17.54
2022-09-15T14:55:30.504Z,17.49
2022-09-15T14:57:38.823Z,17.45
2022-09-15T14:59:46.000Z,17.51
2022-09-15T15:01:56.714Z,17.59
2022-09-15T15:04:05.219Z,17.76
2022-09-15T15:06:29.314Z,17.92
2022-09-15T15:08:38.167Z,17.91
2022-09-15T15:10:40.393Z,18.02
2022-09-15T15:12:45.774Z,18.15
2022-09-15T15:14:47.569Z,18.33
2022-09-15T15:16:56.383Z,18.32
2022-09-15T15:18:58.320Z,18.19
2022-09-15T15:20:59.743Z,17.86
2022-09-15T15:23:12.435Z,17.83
2022-09-15T15:25:26.976Z,17.70
2022-09-15T15:27:43.239Z,17.48
2022-09-15T15:29:45.394Z,17.46
2022-09-15T15:31:46.943Z,17.28
2022-09-15T15:33:50.486Z,17.25
2022-09-15T15:36:05.192Z,17.17
2022-09-15T15:38:13.492Z,17.07
2022-09-15T15:40:17.859Z,17.02
2022-09-15T15:42:20.216Z,16.94
2022-09-15T15:44:28.586Z,16.79
2022-09-15T15:46:51.199Z,16.73
2022-09-15T15:48:52.635Z,16.63
2022-09-15T15:50:54.488Z,16.53
2022-09-15T15:52:55.955Z,16.49
2022-09-15T15:54:57.439Z,16.38
2022-09-15T15:57:20.866Z,16.24
2022-09-15T15:59:22.313Z,16.00
2022-09-15T16:01:25.240Z,15.93
2022-09-15T16:03:26.813Z,15.86
2022-09-15T16:05:29.162Z,15.65
2022-09-15T16:07:33.461Z,15.62
2022-09-15T16:09:35.697Z,15.40
2022-09-15T16:11:37.154Z,15.29
2022-09-15T16:13:39.079Z,15.25
2022-09-15T16:15:41.114Z,15.25
2022-09-15T16:17:46.880Z,15.31
2022-09-15T16:19:48.614Z,15.23
2022-09-15T16:21:50.372Z,15.33
2022-09-15T16:23:51.852Z,15.31
2022-09-15T16:25:55.423Z,15.21
2022-09-15T16:27:56.942Z,15.21
2022-09-15T16:29:58.407Z,15.12
2022-09-15T16:31:59.982Z,15.04
2022-09-15T16:34:03.175Z,15.04
2022-09-15T16:36:05.396Z,14.96
2022-09-15T16:38:07.261Z,14.82
2022-09-15T16:40:09.209Z,14.80
2022-09-15T16:42:10.802Z,14.89
2022-09-15T16:44:17.765Z,14.77
2022-09-15T16:46:19.324Z,14.74
2022-09-15T16:48:20.971Z,14.73
2022-09-15T16:50:23.814Z,14.79
2022-09-15T16:52:25.385Z,14.73
2022-09-15T16:54:26.839Z,14.73
2022-09-15T16:56:28.591Z,14.75
2022-09-15T16:58:30.072Z,14.79
2022-09-15T17:00:34.370Z,14.78
2022-09-15T17:02:35.875Z,14.82
2022-09-15T17:04:37.345Z,14.96
2022-09-15T17:06:40.223Z,15.01
2022-09-15T17:08:41.739Z,15.05
2022-09-15T17:10:43.620Z,15.14
2022-09-15T17:12:45.088Z,14.93
2022-09-15T17:14:46.599Z,14.95
2022-09-15T17:16:48.059Z,15.00
2022-09-15T17:18:49.507Z,15.15
2022-09-15T17:20:51.310Z,15.23
2022-09-15T17:22:54.721Z,15.08
2022-09-15T17:24:56.198Z,15.10
2022-09-15T17:26:57.635Z,15.05
2022-09-15T17:28:59.164Z,15.02
2022-09-15T17:31:02.547Z,15.04
2022-09-15T17:33:05.976Z,14.98
2022-09-15T17:35:15.751Z,14.94
2022-09-15T17:37:17.188Z,14.96
2022-09-15T17:39:19.965Z,14.69
2022-09-15T17:41:21.599Z,14.80
2022-09-15T17:43:24.892Z,14.67
2022-09-15T17:45:28.455Z,14.80
2022-09-15T17:47:29.934Z,14.72
2022-09-15T17:49:31.412Z,14.74
2022-09-15T17:51:32.890Z,14.69
2022-09-15T17:53:34.689Z,14.71
2022-09-15T17:55:37.625Z,14.66
2022-09-15T17:57:39.134Z,14.75
2022-09-15T17:59:40.602Z,14.69
2022-09-15T18:01:42.149Z,14.87
2022-09-15T18:03:44.638Z,14.74
2022-09-15T18:05:46.110Z,14.52
2022-09-15T18:07:47.937Z,14.60
2022-09-15T18:09:49.520Z,14.72
2022-09-15T18:13:58.735Z,14.49
2022-09-15T18:16:04.604Z,14.55
2022-09-15T18:18:06.271Z,14.46
2022-09-15T18:20:09.985Z,14.40
2022-09-15T18:22:13.163Z,14.20
2022-09-15T18:24:14.952Z,14.17
2022-09-15T18:26:16.389Z,14.10
2022-09-15T18:28:19.958Z,13.98
2022-09-15T18:30:23.276Z,13.90
2022-09-15T18:32:24.761Z,13.89
2022-09-15T18:34:26.228Z,13.75
2022-09-15T18:36:28.386Z,13.67
2022-09-15T18:38:29.860Z,13.60
2022-09-15T18:40:31.326Z,13.60
2022-09-15T18:42:33.048Z,13.60
2022-09-15T18:44:35.987Z,13.55
2022-09-15T18:46:37.474Z,13.55
2022-09-15T18:48:39.076Z,13.27
2022-09-15T18:50:41.153Z,13.31
2022-09-15T18:52:42.682Z,13.32
2022-09-15T18:54:48.988Z,13.26
2022-09-15T18:56:50.766Z,13.21
2022-09-15T18:58:53.034Z,13.19
2022-09-15T19:01:00.093Z,13.21
2022-09-15T19:03:04.097Z,13.32
2022-09-15T19:05:07.148Z,13.25
2022-09-15T19:07:09.126Z,13.28
2022-09-15T19:09:10.870Z,13.28
2022-09-15T19:11:12.349Z,13.35
2022-09-15T19:13:13.948Z,13.37
2022-09-15T19:15:15.889Z,13.33
2022-09-15T19:17:18.811Z,13.46
2022-09-15T19:19:20.464Z,13.35
2022-09-15T19:21:25.261Z,13.40
2022-09-15T19:23:28.749Z,13.32
2022-09-15T19:25:30.217Z,13.40
2022-09-15T19:27:32.536Z,13.37
2022-09-15T19:29:34.900Z,13.43
2022-09-15T19:31:41.711Z,13.46
2022-09-15T19:33:44.845Z,13.43
2022-09-15T19:35:46.282Z,13.47
2022-09-15T19:37:47.776Z,13.49
2022-09-15T19:39:50.376Z,13.49
2022-09-15T19:41:51.970Z,13.53
2022-09-15T19:43:53.620Z,13.54
2022-09-15T19:45:55.278Z,13.46
2022-09-15T19:47:56.773Z,13.49
2022-09-15T19:49:59.718Z,13.47
2022-09-15T19:52:01.210Z,13.46
2022-09-15T19:54:02.994Z,13.39
2022-09-15T19:56:05.164Z,13.40
2022-09-15T19:58:06.619Z,13.39
2022-09-15T20:00:09.993Z,13.47
2022-09-15T20:02:11.607Z,13.41
2022-09-15T20:07:07.578Z,13.43
2022-09-15T20:09:09.330Z,13.42
2022-09-15T20:11:10.913Z,13.42
2022-09-15T20:13:13.116Z,13.48
2022-09-15T20:15:14.664Z,13.43
2022-09-15T20:17:16.200Z,13.41
2022-09-15T20:19:17.906Z,13.41
2022-09-15T20:21:45.875Z,13.39
2022-09-15T20:23:45.192Z,13.36
2022-09-15T20:25:57.209Z,13.26
2022-09-15T20:27:58.795Z,13.34
2022-09-15T20:30:00.243Z,13.34
2022-09-15T20:32:02.041Z,13.36
2022-09-15T20:34:03.512Z,13.37
2022-09-15T20:36:07.505Z,13.38
2022-09-15T20:38:09.020Z,13.36
2022-09-15T20:40:11.958Z,13.26
2022-09-15T20:42:13.459Z,13.15
2022-09-15T20:44:15.429Z,13.15
2022-09-15T20:46:18.657Z,13.13
2022-09-15T20:48:20.134Z,13.16
2022-09-15T20:50:21.593Z,13.08
2022-09-15T20:52:25.811Z,12.98
2022-09-15T20:54:29.469Z,12.93
2022-09-15T20:56:34.383Z,12.95
2022-09-15T20:58:37.397Z,12.95
2022-09-15T21:00:38.889Z,13.01
2022-09-15T21:02:40.344Z,12.93
2022-09-15T21:04:41.840Z,12.86
2022-09-15T21:06:43.335Z,12.87
2022-09-15T21:08:45.757Z,12.91
2022-09-15T21:10:47.227Z,12.91
2022-09-15T21:12:50.238Z,12.91
2022-09-15T21:14:51.687Z,12.81
2022-09-15T21:16:53.203Z,12.78
2022-09-15T21:18:56.342Z,12.84
2022-09-15T21:20:59.214Z,12.78
2022-09-15T21:23:00.682Z,12.78
2022-09-15T21:25:02.518Z,12.81
2022-09-15T21:27:04.080Z,12.86
2022-09-15T21:29:06.949Z,12.91
2022-09-15T21:31:10.720Z,12.90
2022-09-15T21:33:12.172Z,12.90
2022-09-15T21:35:13.737Z,12.91
2022-09-15T21:37:15.189Z,12.89
2022-09-15T21:39:16.641Z,12.92
2022-09-15T21:41:20.416Z,12.97
2022-09-15T21:43:21.959Z,12.91
2022-09-15T21:45:24.805Z,12.98
2022-09-15T21:47:26.326Z,12.93
2022-09-15T21:49:27.792Z,13.05
2022-09-15T21:51:29.739Z,12.92
2022-09-15T21:53:31.541Z,12.94
2022-09-15T21:55:35.889Z,12.88
2022-09-15T21:57:37.362Z,12.89
2022-09-15T21:59:39.095Z,12.85
2022-09-15T22:01:42.063Z,12.92
2022-09-15T22:03:43.598Z,12.84
2022-09-15T22:05:47.144Z,12.78
2022-09-15T22:07:48.595Z,12.76
2022-09-15T22:09:50.053Z,12.74
2022-09-15T22:11:51.543Z,12.61
2022-09-15T22:13:53.904Z,12.60
2022-09-15T22:16:00.395Z,12.65
2022-09-15T22:18:03.901Z,12.59
2022-09-15T22:20:06.189Z,12.58
2022-09-15T22:22:07.696Z,12.64
2022-09-15T22:24:11.009Z,12.55
2022-09-15T22:26:14.844Z,12.49
2022-09-15T22:28:16.295Z,12.46
2022-09-15T22:30:18.153Z,12.45
2022-09-15T22:32:19.629Z,12.40
2022-09-15T22:34:22.414Z,12.39
2022-09-15T22:36:29.313Z,12.25
2022-09-15T22:38:31.495Z,12.38
2022-09-15T22:40:33.589Z,12.38
2022-09-15T22:42:35.127Z,12.31
2022-09-15T22:44:36.660Z,12.22
2022-09-15T22:46:38.110Z,12.22
2022-09-15T22:48:43.331Z,12.15
2022-09-15T22:50:46.463Z,12.12
2022-09-15T22:52:47.886Z,12.21
2022-09-15T22:54:49.233Z,12.21
2022-09-15T22:56:50.674Z,12.15
2022-09-15T22:58:51.999Z,12.16
2022-09-15T23:00:53.716Z,12.31
2022-09-15T23:02:55.178Z,12.26
2022-09-15T23:04:56.482Z,12.29
2022-09-15T23:06:59.430Z,12.34
2022-09-15T23:09:05.097Z,12.42
2022-09-15T23:11:08.491Z,12.35
2022-09-15T23:13:09.962Z,12.34
2022-09-15T23:15:11.637Z,12.34
2022-09-15T23:17:13.084Z,12.35
2022-09-15T23:19:14.718Z,12.36
2022-09-15T23:21:16.213Z,12.28
2022-09-15T23:23:19.009Z,12.17
2022-09-15T23:25:20.499Z,12.15
2022-09-15T23:27:21.967Z,12.12
2022-09-15T23:29:23.404Z,12.09
2022-09-15T23:31:24.813Z,12.07
2022-09-15T23:33:28.674Z,12.00
2022-09-15T23:35:30.140Z,12.03
2022-09-15T23:37:31.692Z,12.11
2022-09-15T23:39:34.486Z,12.06
2022-09-15T23:41:35.938Z,12.00
2022-09-15T23:43:37.686Z,11.94
2022-09-15T23:45:39.848Z,11.98
2022-09-15T23:47:41.317Z,11.95
2022-09-15T23:49:43.137Z,11.92
2022-09-15T23:51:44.592Z,11.88
2022-09-15T23:53:45.877Z,11.90
2022-09-15T23:55:48.681Z,11.80
2022-09-15T23:57:50.180Z,11.70
2022-09-15T23:59:51.735Z,11.79
